createdAt,value
2023-04-29T00:02:11.822Z,36.23
2023-04-29T00:04:38.593Z,36.02
2023-04-29T00:07:05.258Z,36.35
2023-04-29T00:09:31.654Z,36.06
2023-04-29T00:11:58.071Z,36.23
2023-04-29T00:14:24.924Z,36.28
2023-04-29T00:16:51.692Z,36.33
2023-04-29T00:19:18.606Z,36.03
2023-04-29T00:21:45.059Z,36.12
2023-04-29T00:24:11.585Z,35.99
2023-04-29T00:26:38.424Z,35.99
2023-04-29T00:29:04.861Z,36.10
2023-04-29T00:31:32.710Z,35.55
2023-04-29T00:33:59.538Z,35.57
2023-04-29T00:36:26.330Z,35.84
2023-04-29T00:38:52.731Z,35.85
2023-04-29T00:41:19.639Z,35.82
2023-04-29T00:43:46.091Z,36.07
2023-04-29T00:46:13.692Z,36.10
2023-04-29T00:48:41.369Z,36.09
2023-04-29T00:51:07.870Z,36.26
2023-04-29T00:53:34.937Z,36.07
2023-04-29T00:56:01.786Z,35.83
2023-04-29T00:58:33.348Z,35.72
2023-04-29T01:01:00.027Z,35.81
2023-04-29T01:03:26.882Z,35.95
2023-04-29T01:05:54.755Z,35.82
2023-04-29T01:08:28.893Z,35.84
2023-04-29T01:10:57.902Z,35.98
2023-04-29T01:13:24.298Z,36.18
2023-04-29T01:16:03.630Z,36.27
2023-04-29T01:18:32.839Z,36.24
2023-04-29T01:20:59.823Z,36.14
2023-04-29T01:23:26.981Z,36.15
2023-04-29T01:25:54.259Z,36.10
2023-04-29T01:28:44.448Z,35.80
2023-04-29T01:31:14.782Z,35.83
2023-04-29T01:33:48.776Z,35.83
2023-04-29T01:36:16.587Z,35.80
2023-04-29T01:38:43.241Z,35.75
2023-04-29T01:41:17.194Z,35.86
2023-04-29T01:43:47.616Z,35.81
2023-04-29T01:46:20.897Z,35.74
2023-04-29T01:48:48.736Z,35.85
2023-04-29T01:51:15.331Z,35.96
2023-04-29T01:53:41.804Z,35.70
2023-04-29T01:56:08.337Z,35.81
2023-04-29T01:58:44.812Z,35.90
2023-04-29T02:01:29.625Z,35.90
2023-04-29T02:03:56.243Z,35.74
2023-04-29T02:06:22.984Z,35.40
2023-04-29T02:08:54.929Z,35.59
2023-04-29T02:11:21.522Z,35.51
2023-04-29T02:13:48.109Z,35.68
2023-04-29T02:16:15.555Z,35.74
2023-04-29T02:18:51.952Z,35.85
2023-04-29T02:21:18.385Z,35.81
2023-04-29T02:23:44.753Z,35.58
2023-04-29T02:26:11.935Z,35.92
2023-04-29T02:28:38.724Z,35.96
2023-04-29T02:31:05.357Z,35.83
2023-04-29T02:33:32.853Z,35.82
2023-04-29T02:35:59.752Z,35.88
2023-04-29T02:38:26.251Z,35.85
2023-04-29T02:40:52.747Z,35.77
2023-04-29T02:43:21.197Z,35.85
2023-04-29T02:45:47.697Z,35.82
2023-04-29T02:48:14.753Z,35.83
2023-04-29T02:50:41.522Z,35.70
2023-04-29T02:53:08.011Z,35.95
2023-04-29T02:55:34.560Z,36.07
2023-04-29T02:58:06.999Z,35.97
2023-04-29T03:00:33.512Z,35.60
2023-04-29T03:03:00.100Z,35.92
2023-04-29T03:05:26.828Z,35.94
2023-04-29T03:07:53.981Z,35.96
2023-04-29T03:10:20.482Z,36.05
2023-04-29T03:12:46.870Z,36.00
2023-04-29T03:15:13.339Z,35.90
2023-04-29T03:17:40.192Z,36.13
2023-04-29T03:20:07.780Z,36.16
2023-04-29T03:22:34.924Z,36.11
2023-04-29T03:25:01.637Z,36.14
2023-04-29T03:27:28.308Z,36.03
2023-04-29T03:29:55.163Z,36.16
2023-04-29T03:32:21.765Z,35.96
2023-04-29T03:34:49.328Z,35.93
2023-04-29T03:37:29.753Z,36.11
2023-04-29T03:40:08.881Z,35.88
2023-04-29T03:42:35.721Z,36.28
2023-04-29T03:45:02.733Z,36.28
2023-04-29T03:47:29.741Z,36.05
2023-04-29T03:49:56.153Z,36.14
2023-04-29T03:52:22.552Z,36.09
2023-04-29T03:54:51.552Z,35.92
2023-04-29T03:57:17.970Z,36.16
2023-04-29T03:59:45.450Z,35.92
2023-04-29T04:02:11.960Z,35.91
2023-04-29T04:04:38.680Z,35.71
2023-04-29T04:07:06.015Z,35.36
2023-04-29T04:09:44.813Z,35.38
2023-04-29T04:12:11.222Z,35.42
2023-04-29T04:14:38.315Z,35.70
2023-04-29T04:17:04.751Z,35.92
2023-04-29T04:19:31.793Z,36.03
2023-04-29T04:21:59.272Z,36.17
2023-04-29T04:24:25.751Z,36.03
2023-04-29T04:26:52.112Z,35.94
2023-04-29T04:29:25.984Z,35.79
2023-04-29T04:31:58.410Z,35.73
2023-04-29T04:34:26.245Z,35.73
2023-04-29T04:36:54.640Z,35.64
2023-04-29T04:39:22.258Z,35.86
2023-04-29T04:41:49.384Z,35.51
2023-04-29T04:44:16.493Z,35.62
2023-04-29T04:47:04.123Z,35.60
2023-04-29T04:49:46.155Z,35.50
2023-04-29T04:52:12.683Z,35.34
2023-04-29T04:54:39.202Z,35.97
2023-04-29T04:57:13.312Z,36.09
2023-04-29T04:59:39.740Z,36.03
2023-04-29T05:02:06.204Z,36.03
2023-04-29T05:04:32.658Z,36.11
2023-04-29T05:06:59.133Z,35.82
2023-04-29T05:09:30.938Z,35.71
2023-04-29T05:11:59.346Z,35.87
2023-04-29T05:14:27.395Z,36.11
2023-04-29T05:16:53.914Z,35.93
2023-04-29T05:19:20.474Z,36.02
2023-04-29T05:21:46.899Z,35.80
2023-04-29T05:24:13.301Z,35.39
2023-04-29T05:26:39.840Z,35.30
2023-04-29T05:29:06.829Z,35.33
2023-04-29T05:31:42.639Z,35.21
2023-04-29T05:34:09.213Z,35.20
2023-04-29T05:36:36.611Z,35.44
2023-04-29T05:39:03.528Z,35.42
2023-04-29T05:41:29.947Z,35.34
2023-04-29T05:44:11.367Z,35.38
2023-04-29T05:46:37.853Z,35.44
2023-04-29T05:49:04.361Z,35.44
2023-04-29T05:51:31.802Z,35.35
2023-04-29T05:54:01.694Z,35.79
2023-04-29T05:56:29.686Z,36.06
2023-04-29T05:58:56.212Z,36.20
2023-04-29T06:01:23.032Z,36.29
2023-04-29T06:03:49.680Z,36.32
2023-04-29T06:06:35.009Z,35.82
2023-04-29T06:09:27.953Z,36.12
2023-04-29T06:11:58.783Z,36.13
2023-04-29T06:14:25.598Z,36.18
2023-04-29T06:16:53.653Z,36.10
2023-04-29T06:19:20.049Z,35.97
2023-04-29T06:21:47.874Z,36.17
2023-04-29T06:24:14.538Z,36.06
2023-04-29T06:26:40.978Z,36.25
2023-04-29T06:29:07.570Z,36.39
2023-04-29T06:31:35.969Z,36.47
2023-04-29T06:34:04.049Z,36.71
2023-04-29T06:36:32.207Z,36.47
2023-04-29T06:39:12.870Z,36.73
2023-04-29T06:41:55.018Z,36.53
2023-04-29T06:44:39.728Z,36.43
2023-04-29T06:47:24.608Z,36.42
2023-04-29T06:50:07.076Z,36.17
2023-04-29T06:52:33.577Z,36.12
2023-04-29T06:55:00.156Z,36.36
2023-04-29T06:57:27.133Z,36.13
2023-04-29T06:59:53.660Z,35.78
2023-04-29T07:02:20.455Z,35.91
2023-04-29T07:04:47.112Z,35.91
2023-04-29T07:07:15.690Z,36.11
2023-04-29T07:09:42.193Z,36.05
2023-04-29T07:12:08.634Z,36.10
2023-04-29T07:14:37.338Z,35.96
2023-04-29T07:17:03.812Z,36.04
2023-04-29T07:19:31.294Z,36.13
2023-04-29T07:21:58.195Z,36.09
2023-04-29T07:24:25.334Z,36.02
2023-04-29T07:26:51.745Z,36.18
2023-04-29T07:29:18.184Z,35.54
2023-04-29T07:31:44.615Z,35.48
2023-04-29T07:34:11.231Z,35.40
2023-04-29T07:36:38.703Z,35.33
2023-04-29T07:39:05.987Z,35.77
2023-04-29T07:41:32.458Z,35.78
2023-04-29T07:43:58.899Z,35.31
2023-04-29T07:46:25.487Z,35.44
2023-04-29T07:48:52.978Z,35.16
2023-04-29T07:51:19.467Z,35.68
2023-04-29T07:53:45.897Z,35.56
2023-04-29T07:56:12.366Z,35.41
2023-04-29T07:58:39.488Z,35.41
2023-04-29T08:01:07.059Z,35.50
2023-04-29T08:03:33.876Z,35.54
2023-04-29T08:06:01.565Z,35.38
2023-04-29T08:08:27.996Z,35.67
2023-04-29T08:10:54.475Z,35.33
2023-04-29T08:13:20.840Z,35.64
2023-04-29T08:15:47.348Z,35.75
2023-04-29T08:18:15.015Z,35.50
2023-04-29T08:20:41.708Z,35.41
2023-04-29T08:23:08.117Z,35.59
2023-04-29T08:25:34.520Z,35.72
2023-04-29T08:28:00.953Z,35.53
2023-04-29T08:30:27.370Z,35.57
2023-04-29T08:32:53.890Z,35.28
2023-04-29T08:35:20.510Z,35.56
2023-04-29T08:37:47.664Z,35.53
2023-04-29T08:40:14.082Z,35.50
2023-04-29T08:42:41.187Z,35.31
2023-04-29T08:45:07.758Z,35.37
2023-04-29T08:47:34.421Z,35.35
2023-04-29T08:50:04.532Z,35.46
2023-04-29T08:52:34.215Z,35.60
2023-04-29T08:55:02.583Z,35.64
2023-04-29T08:57:29.794Z,35.30
2023-04-29T08:59:56.278Z,35.64
2023-04-29T09:02:22.939Z,35.37
2023-04-29T09:05:00.729Z,35.09
2023-04-29T09:07:27.220Z,35.19
2023-04-29T09:09:53.697Z,35.12
2023-04-29T09:12:20.195Z,35.51
2023-04-29T09:14:46.748Z,35.45
2023-04-29T09:17:13.205Z,35.08
2023-04-29T09:19:39.607Z,35.32
2023-04-29T09:22:08.970Z,35.37
2023-04-29T09:24:35.470Z,35.63
2023-04-29T09:27:03.392Z,35.34
2023-04-29T09:29:30.800Z,35.43
2023-04-29T09:31:58.578Z,35.43
2023-04-29T09:34:32.202Z,35.32
2023-04-29T09:36:59.188Z,35.30
2023-04-29T09:39:26.223Z,35.28
2023-04-29T09:41:52.719Z,35.38
2023-04-29T09:44:26.088Z,35.34
2023-04-29T09:47:02.680Z,35.35
2023-04-29T09:49:33.508Z,35.28
2023-04-29T09:52:00.480Z,35.23
2023-04-29T09:54:28.565Z,34.82
2023-04-29T09:56:55.718Z,34.81
2023-04-29T09:59:22.734Z,34.34
2023-04-29T10:01:50.189Z,34.45
2023-04-29T10:04:17.462Z,34.21
2023-04-29T10:06:44.638Z,34.48
2023-04-29T10:09:13.571Z,34.11
2023-04-29T10:11:40.069Z,33.61
2023-04-29T10:14:06.532Z,33.43
2023-04-29T10:16:35.099Z,33.31
2023-04-29T10:19:06.925Z,33.04
2023-04-29T10:21:33.380Z,33.61
2023-04-29T10:24:00.035Z,33.79
2023-04-29T10:26:27.354Z,33.64
2023-04-29T10:28:54.498Z,33.90
2023-04-29T10:31:21.662Z,34.04
2023-04-29T10:33:48.149Z,33.96
2023-04-29T10:36:14.960Z,33.70
2023-04-29T10:38:49.511Z,33.67
2023-04-29T10:41:24.725Z,33.73
2023-04-29T10:43:51.957Z,33.53
2023-04-29T10:46:18.363Z,33.32
2023-04-29T10:48:45.155Z,33.38
2023-04-29T10:51:11.788Z,33.27
2023-04-29T10:53:57.924Z,33.09
2023-04-29T10:56:24.623Z,33.20
2023-04-29T10:58:51.446Z,33.36
2023-04-29T11:01:17.965Z,34.82
2023-04-29T11:03:55.960Z,35.37
2023-04-29T11:06:23.376Z,35.04
2023-04-29T11:08:59.381Z,34.92
2023-04-29T11:11:27.782Z,34.61
2023-04-29T11:13:54.768Z,34.66
2023-04-29T11:16:22.449Z,34.57
2023-04-29T11:19:05.013Z,34.72
2023-04-29T11:21:32.675Z,34.82
2023-04-29T11:23:59.109Z,34.80
2023-04-29T11:26:25.756Z,34.59
2023-04-29T11:28:52.276Z,34.78
2023-04-29T11:31:18.713Z,34.89
2023-04-29T11:33:45.181Z,34.69
2023-04-29T11:36:11.569Z,34.63
2023-04-29T11:38:39.512Z,34.90
2023-04-29T11:41:05.921Z,35.02
2023-04-29T11:43:32.335Z,35.30
2023-04-29T11:45:58.804Z,34.87
2023-04-29T11:48:25.700Z,35.10
2023-04-29T11:50:52.581Z,35.04
2023-04-29T11:53:22.384Z,35.35
2023-04-29T11:55:48.837Z,36.23
2023-04-29T11:58:16.298Z,36.29
2023-04-29T12:00:42.694Z,35.67
2023-04-29T12:03:16.018Z,35.19
2023-04-29T12:05:49.540Z,34.75
2023-04-29T12:08:19.378Z,34.26
2023-04-29T12:10:46.867Z,33.85
2023-04-29T12:13:13.270Z,33.57
2023-04-29T12:15:40.358Z,33.52
2023-04-29T12:18:07.105Z,33.56
2023-04-29T12:20:33.548Z,33.87
2023-04-29T12:23:15.694Z,33.59
2023-04-29T12:25:42.573Z,32.95
2023-04-29T12:28:12.889Z,32.70
2023-04-29T12:30:39.414Z,32.10
2023-04-29T12:33:08.129Z,32.36
2023-04-29T12:35:34.683Z,32.33
2023-04-29T12:38:01.335Z,32.91
2023-04-29T12:40:30.074Z,32.94
2023-04-29T12:42:56.749Z,33.34
2023-04-29T12:45:32.613Z,33.51
2023-04-29T12:47:59.285Z,33.66
2023-04-29T12:50:29.828Z,33.90
2023-04-29T12:52:56.453Z,33.80
2023-04-29T12:55:22.985Z,33.97
2023-04-29T12:57:49.654Z,34.04
2023-04-29T13:00:16.838Z,34.02
2023-04-29T13:02:43.432Z,34.19
2023-04-29T13:05:09.983Z,34.03
2023-04-29T13:07:37.151Z,34.28
2023-04-29T13:10:06.391Z,34.23
2023-04-29T13:12:33.066Z,34.55
2023-04-29T13:14:59.755Z,34.50
2023-04-29T13:17:26.463Z,34.16
2023-04-29T13:19:52.988Z,34.58
2023-04-29T13:22:19.456Z,34.19
2023-04-29T13:24:46.560Z,34.43
2023-04-29T13:27:13.132Z,34.51
2023-04-29T13:29:39.641Z,34.58
2023-04-29T13:32:06.180Z,34.71
2023-04-29T13:34:32.724Z,34.52
2023-04-29T13:36:59.240Z,34.39
2023-04-29T13:39:25.839Z,34.66
2023-04-29T13:41:56.172Z,34.46
2023-04-29T13:44:32.907Z,34.46
2023-04-29T13:47:06.334Z,34.36
2023-04-29T13:50:20.115Z,34.40
2023-04-29T13:55:25.870Z,34.50
2023-04-29T14:00:25.499Z,34.78
2023-04-29T14:05:25.393Z,34.58
2023-04-29T14:07:52.197Z,34.72
2023-04-29T14:10:18.682Z,34.87
2023-04-29T14:12:45.143Z,34.78
2023-04-29T14:15:12.129Z,34.62
2023-04-29T14:17:38.634Z,34.80
2023-04-29T14:20:05.390Z,34.73
2023-04-29T14:22:31.836Z,34.66
2023-04-29T14:24:58.262Z,34.66
2023-04-29T14:27:24.721Z,34.71
2023-04-29T14:29:51.213Z,34.64
2023-04-29T14:32:17.576Z,34.41
2023-04-29T14:34:44.056Z,34.64
2023-04-29T14:37:10.623Z,34.81
2023-04-29T14:39:37.121Z,34.54
2023-04-29T14:42:04.398Z,35.63
2023-04-29T14:44:31.186Z,35.65
2023-04-29T14:46:57.712Z,35.02
2023-04-29T14:49:24.179Z,35.46
2023-04-29T14:51:50.621Z,36.99
2023-04-29T14:54:17.259Z,36.30
2023-04-29T14:56:43.820Z,35.37
2023-04-29T14:59:10.452Z,35.92
2023-04-29T15:01:37.010Z,36.27
2023-04-29T15:04:04.424Z,37.03
2023-04-29T15:06:34.382Z,37.97
2023-04-29T15:09:01.086Z,36.31
2023-04-29T15:11:27.966Z,35.66
2023-04-29T15:13:54.407Z,37.83
2023-04-29T15:16:21.006Z,38.15
2023-04-29T15:18:47.471Z,36.64
2023-04-29T15:21:13.908Z,37.30
2023-04-29T15:23:40.474Z,36.72
2023-04-29T15:26:07.760Z,36.25
2023-04-29T15:28:34.237Z,36.22
2023-04-29T15:31:03.696Z,36.49
2023-04-29T15:33:30.160Z,36.49
2023-04-29T15:35:57.713Z,36.63
2023-04-29T15:38:24.119Z,36.32
2023-04-29T15:40:50.611Z,36.25
2023-04-29T15:43:17.079Z,36.49
2023-04-29T15:45:44.396Z,36.11
2023-04-29T15:48:10.967Z,36.20
2023-04-29T15:50:37.526Z,35.78
2023-04-29T15:53:03.980Z,36.12
2023-04-29T15:55:30.420Z,35.16
2023-04-29T15:57:56.878Z,33.28
2023-04-29T16:00:23.251Z,33.29
2023-04-29T16:02:49.706Z,33.49
2023-04-29T16:05:16.157Z,33.41
2023-04-29T16:07:42.608Z,33.58
2023-04-29T16:10:09.894Z,33.64
2023-04-29T16:12:36.435Z,33.63
2023-04-29T16:15:03.307Z,33.87
2023-04-29T16:17:31.372Z,33.56
2023-04-29T16:19:58.302Z,33.49
2023-04-29T16:22:24.774Z,33.40
2023-04-29T16:24:51.230Z,33.74
2023-04-29T16:27:17.720Z,33.54
2023-04-29T16:29:44.223Z,33.63
2023-04-29T16:32:11.202Z,33.71
2023-04-29T16:34:37.852Z,33.63
2023-04-29T16:37:04.279Z,33.56
2023-04-29T16:39:31.214Z,33.56
2023-04-29T16:41:59.456Z,34.01
2023-04-29T16:44:25.976Z,34.07
2023-04-29T16:46:52.794Z,34.05
2023-04-29T16:49:19.671Z,34.05
2023-04-29T16:51:46.132Z,34.10
2023-04-29T16:54:12.639Z,33.88
2023-04-29T16:56:39.073Z,33.97
2023-04-29T16:59:05.538Z,34.09
2023-04-29T17:01:32.282Z,34.14
2023-04-29T17:03:59.364Z,34.03
2023-04-29T17:06:26.207Z,34.07
2023-04-29T17:08:52.884Z,33.60
2023-04-29T17:11:19.318Z,33.45
2023-04-29T17:13:46.336Z,33.72
2023-04-29T17:16:13.818Z,33.79
2023-04-29T17:18:40.360Z,34.07
2023-04-29T17:21:06.803Z,34.29
2023-04-29T17:23:33.347Z,34.09
2023-04-29T17:25:59.826Z,34.09
2023-04-29T17:28:26.550Z,34.29
2023-04-29T17:30:59.823Z,34.10
2023-04-29T17:33:34.276Z,34.34
2023-04-29T17:36:04.169Z,34.49
2023-04-29T17:38:30.643Z,34.39
2023-04-29T17:40:57.062Z,34.35
2023-04-29T17:43:23.524Z,34.20
2023-04-29T17:45:49.927Z,34.52
2023-04-29T17:48:18.497Z,34.29
2023-04-29T17:50:45.391Z,34.79
2023-04-29T17:53:12.053Z,34.86
2023-04-29T17:55:38.896Z,35.58
2023-04-29T17:58:05.630Z,35.58
2023-04-29T18:00:32.056Z,35.01
2023-04-29T18:02:58.640Z,34.56
2023-04-29T18:05:25.161Z,33.64
2023-04-29T18:07:51.573Z,33.35
2023-04-29T18:10:18.057Z,32.69
2023-04-29T18:12:44.464Z,32.68
2023-04-29T18:15:13.957Z,32.66
2023-04-29T18:17:40.598Z,33.19
2023-04-29T18:20:07.935Z,33.26
2023-04-29T18:22:34.411Z,33.55
2023-04-29T18:25:00.865Z,33.78
2023-04-29T18:27:27.455Z,34.29
2023-04-29T18:29:54.197Z,34.80
2023-04-29T18:32:20.981Z,34.47
2023-04-29T18:34:47.451Z,34.94
2023-04-29T18:37:14.134Z,35.01
2023-04-29T18:39:40.553Z,35.23
2023-04-29T18:42:07.034Z,35.08
2023-04-29T18:44:33.470Z,35.19
2023-04-29T18:46:59.885Z,34.88
2023-04-29T18:49:26.319Z,35.04
2023-04-29T18:51:52.829Z,35.02
2023-04-29T18:54:19.364Z,34.96
2023-04-29T18:56:46.682Z,35.19
2023-04-29T18:59:15.804Z,35.36
2023-04-29T19:01:43.366Z,34.91
2023-04-29T19:04:10.333Z,34.92
2023-04-29T19:06:37.007Z,34.89
2023-04-29T19:09:03.747Z,34.96
2023-04-29T19:11:30.307Z,34.65
2023-04-29T19:13:56.798Z,34.69
2023-04-29T19:16:23.476Z,34.58
2023-04-29T19:18:50.037Z,34.66
2023-04-29T19:21:16.825Z,34.50
2023-04-29T19:23:43.345Z,34.76
2023-04-29T19:26:09.862Z,34.91
2023-04-29T19:28:36.255Z,34.75
2023-04-29T19:31:03.313Z,34.68
2023-04-29T19:33:30.676Z,34.59
2023-04-29T19:35:57.225Z,34.12
2023-04-29T19:38:24.352Z,34.28
2023-04-29T19:40:50.788Z,34.18
2023-04-29T19:43:17.973Z,34.74
2023-04-29T19:45:44.457Z,34.32
2023-04-29T19:48:11.188Z,34.46
2023-04-29T19:50:38.149Z,34.77
2023-04-29T19:53:04.677Z,34.64
2023-04-29T19:55:31.268Z,34.75
2023-04-29T19:57:58.549Z,34.60
2023-04-29T20:00:25.160Z,34.92
2023-04-29T20:02:52.287Z,34.91
2023-04-29T20:05:19.767Z,35.02
2023-04-29T20:07:46.279Z,34.86
2023-04-29T20:10:12.801Z,34.92
2023-04-29T20:12:40.306Z,35.64
2023-04-29T20:15:08.144Z,35.12
2023-04-29T20:17:34.756Z,35.08
2023-04-29T20:20:01.847Z,35.67
2023-04-29T20:22:29.256Z,35.47
2023-04-29T20:24:55.706Z,35.20
2023-04-29T20:27:22.319Z,35.29
2023-04-29T20:29:48.809Z,35.53
2023-04-29T20:32:15.448Z,35.63
2023-04-29T20:34:42.172Z,35.03
2023-04-29T20:37:09.665Z,35.24
2023-04-29T20:39:36.596Z,35.23
2023-04-29T20:42:03.217Z,35.38
2023-04-29T20:44:29.986Z,35.32
2023-04-29T20:46:56.497Z,35.20
2023-04-29T20:49:23.146Z,35.30
2023-04-29T20:51:49.671Z,34.98
2023-04-29T20:54:16.107Z,34.94
2023-04-29T20:56:42.555Z,35.33
2023-04-29T20:59:09.010Z,34.67
2023-04-29T21:01:37.541Z,34.87
2023-04-29T21:04:04.608Z,34.88
2023-04-29T21:06:32.087Z,34.83
2023-04-29T21:08:58.683Z,34.89
2023-04-29T21:11:25.239Z,34.79
2023-04-29T21:13:51.966Z,35.01
2023-04-29T21:16:18.891Z,34.96
2023-04-29T21:18:45.496Z,34.57
2023-04-29T21:21:12.088Z,34.85
2023-04-29T21:23:38.830Z,35.04
2023-04-29T21:26:05.224Z,34.67
2023-04-29T21:28:31.716Z,34.71
2023-04-29T21:30:58.294Z,34.78
2023-04-29T21:33:24.838Z,34.62
2023-04-29T21:35:51.566Z,34.75
2023-04-29T21:38:18.391Z,34.58
2023-04-29T21:40:45.124Z,34.76
2023-04-29T21:43:11.611Z,34.93
2023-04-29T21:45:38.024Z,34.69
2023-04-29T21:48:12.880Z,34.79
2023-04-29T21:50:39.273Z,34.56
2023-04-29T21:53:05.698Z,34.96
2023-04-29T21:55:32.202Z,34.89
2023-04-29T21:57:58.750Z,34.83
2023-04-29T22:00:33.067Z,34.76
2023-04-29T22:03:00.632Z,34.73
2023-04-29T22:05:27.294Z,35.18
2023-04-29T22:07:53.841Z,34.94
2023-04-29T22:10:20.389Z,34.61
2023-04-29T22:12:46.872Z,34.72
2023-04-29T22:15:20.970Z,35.04
2023-04-29T22:17:54.874Z,34.95
2023-04-29T22:20:21.455Z,34.91
2023-04-29T22:22:47.939Z,35.12
2023-04-29T22:25:14.474Z,35.16
2023-04-29T22:27:41.113Z,34.90
2023-04-29T22:30:08.316Z,34.92
2023-04-29T22:32:34.813Z,35.08
2023-04-29T22:35:01.512Z,35.10
2023-04-29T22:37:27.971Z,35.09
2023-04-29T22:39:54.645Z,34.86
2023-04-29T22:42:21.360Z,34.97
2023-04-29T22:44:47.829Z,35.10
2023-04-29T22:47:14.353Z,35.07
2023-04-29T22:49:41.045Z,34.99
2023-04-29T22:52:07.590Z,35.18
2023-04-29T22:54:34.037Z,35.50
2023-04-29T22:57:00.673Z,35.46
2023-04-29T22:59:27.144Z,35.53
2023-04-29T23:01:53.731Z,35.42
2023-04-29T23:04:20.426Z,35.63
2023-04-29T23:06:46.950Z,35.67
2023-04-29T23:09:13.493Z,35.64
2023-04-29T23:11:40.002Z,35.47
2023-04-29T23:14:07.611Z,35.58
2023-04-29T23:16:34.095Z,35.53
2023-04-29T23:19:00.528Z,35.69
2023-04-29T23:21:27.124Z,35.65
2023-04-29T23:23:54.066Z,35.35
2023-04-29T23:26:20.828Z,35.89
2023-04-29T23:28:47.275Z,35.70
2023-04-29T23:31:13.740Z,35.77
2023-04-29T23:33:40.277Z,35.61
2023-04-29T23:36:06.734Z,35.63
2023-04-29T23:38:33.123Z,35.42
2023-04-29T23:40:59.526Z,35.45
2023-04-29T23:43:25.929Z,35.70
2023-04-29T23:45:52.915Z,35.79
2023-04-29T23:48:19.410Z,35.63
2023-04-29T23:50:47.115Z,35.54
2023-04-29T23:53:13.529Z,35.73
2023-04-29T23:55:40.039Z,35.69
2023-04-29T23:58:07.576Z,35.94
